Time;durP1;ratioP1;P1;durP2;ratioP2;P2;SDS_P1;SDS_P2;PMS_P1;PMS_P2;Temp;Humidity;BMP_temperature;BMP_pressure;BME280_temperature;BME280_humidity;BME280_pressure;Samples;Min_cycle;Max_cycle;Signal;HPM_P1;HPM_P2
2021/08/01 00:00:14;;;;;;;3.90;2.13;;;29.50;65.80;;;;;;4953239;29;20376;-82
2021/08/01 00:02:41;;;;;;;0.40;0.40;;;29.50;65.80;;;;;;4953449;29;20031;-81
2021/08/01 00:05:08;;;;;;;3.00;1.48;;;29.50;65.90;;;;;;4953244;29;20035;-80
2021/08/01 00:07:35;;;;;;;1.67;1.58;;;29.50;66.10;;;;;;4953198;29;20115;-79
2021/08/01 00:10:02;;;;;;;0.85;0.80;;;29.40;66.10;;;;;;4954973;28;20106;-82
2021/08/01 00:12:29;;;;;;;0.80;0.80;;;29.50;65.60;;;;;;4957192;29;20043;-83
2021/08/01 00:14:55;;;;;;;1.48;1.15;;;29.60;65.30;;;;;;4939403;29;20043;-83
2021/08/01 00:17:22;;;;;;;0.70;0.70;;;29.50;65.70;;;;;;4956723;29;20510;-80
2021/08/01 00:19:48;;;;;;;1.60;1.15;;;29.40;66.20;;;;;;4956781;29;20035;-80
2021/08/01 00:22:13;;;;;;;0.70;0.70;;;29.30;66.30;;;;;;4956821;29;20045;-84
2021/08/01 00:24:39;;;;;;;1.10;1.10;;;29.30;66.30;;;;;;4956535;29;20098;-83
2021/08/01 00:27:05;;;;;;;1.17;1.08;;;29.30;65.30;;;;;;4956994;29;20028;-80
2021/08/01 00:29:31;;;;;;;0.40;0.40;;;29.20;65.10;;;;;;4956654;29;20035;-84
2021/08/01 00:31:59;;;;;;;1.35;0.82;;;29.10;65.10;;;;;;4956385;29;20435;-79
2021/08/01 00:34:25;;;;;;;0.50;0.50;;;29.10;65.20;;;;;;4956362;29;20044;-83
2021/08/01 00:36:50;;;;;;;1.80;1.67;;;28.90;65.60;;;;;;4956803;29;20086;-84
2021/08/01 00:39:16;;;;;;;0.90;0.90;;;28.90;66.10;;;;;;4956156;29;20121;-80
2021/08/01 00:41:42;;;;;;;0.93;0.80;;;28.70;66.30;;;;;;4956566;29;20506;-84
2021/08/01 00:44:08;;;;;;;0.50;0.50;;;28.70;66.50;;;;;;4956206;29;20024;-82
2021/08/01 00:46:34;;;;;;;1.25;1.15;;;28.60;66.50;;;;;;4956743;29;20058;-80
2021/08/01 00:49:03;;;;;;;0.60;0.60;;;28.60;66.30;;;;;;4938950;29;20039;-83
2021/08/01 00:51:30;;;;;;;1.03;0.93;;;28.60;66.60;;;;;;4939035;29;20491;-83
2021/08/01 00:54:02;;;;;;;2.20;2.08;;;28.10;67.10;;;;;;4955951;28;20347;-85
2021/08/01 00:56:30;;;;;;;0.77;0.63;;;27.90;68.00;;;;;;4939060;29;20510;-84
2021/08/01 00:58:56;;;;;;;0.60;0.60;;;27.90;68.00;;;;;;4955836;29;20380;-79
2021/08/01 01:01:31;;;;;;;0.65;0.65;;;28.20;67.70;;;;;;4956088;29;20494;-86
2021/08/01 01:04:22;;;;;;;1.27;0.90;;;28.20;67.50;;;;;;4956142;29;20027;-83
2021/08/01 01:07:12;;;;;;;0.70;0.70;;;27.60;69.20;;;;;;4956592;29;20039;-84
2021/08/01 01:09:57;;;;;;;0.70;0.70;;;27.40;69.70;;;;;;4936717;29;20115;-82
2021/08/01 01:12:30;;;;;;;0.73;0.73;;;27.60;70.00;;;;;;4936774;29;20305;-80
2021/08/01 01:14:58;;;;;;;0.70;0.70;;;27.90;69.00;;;;;;4936791;29;20046;-82
2021/08/01 01:17:30;;;;;;;0.70;0.70;;;28.20;68.20;;;;;;4937005;29;20031;-84
2021/08/01 01:20:27;;;;;;;0.70;0.70;;;28.00;67.80;;;;;;4935886;29;20036;-83
2021/08/01 01:23:20;;;;;;;1.23;1.13;;;27.50;69.30;;;;;;4937084;29;20036;-82
2021/08/01 01:26:05;;;;;;;1.08;0.75;;;27.90;68.40;;;;;;4936681;29;20036;-85
2021/08/01 01:28:52;;;;;;;1.85;1.15;;;28.20;67.80;;;;;;4936146;29;20042;-81
2021/08/01 01:31:29;;;;;;;2.88;1.92;;;28.30;67.60;;;;;;4936621;29;20032;-85
2021/08/01 01:34:18;;;;;;;0.40;0.40;;;28.20;67.60;;;;;;4919122;29;20389;-83
2021/08/01 01:36:46;;;;;;;2.55;1.23;;;28.30;67.70;;;;;;4936555;29;20062;-82
2021/08/01 01:39:13;;;;;;;0.60;0.60;;;28.30;67.80;;;;;;4919111;29;20047;-84
2021/08/01 01:41:42;;;;;;;2.95;1.60;;;28.20;67.90;;;;;;4936324;29;20032;-81
2021/08/01 01:44:09;;;;;;;0.93;0.93;;;28.10;68.00;;;;;;4919090;29;20040;-84
2021/08/01 01:46:36;;;;;;;0.50;0.50;;;28.00;68.20;;;;;;4936355;29;20044;-81
2021/08/01 01:49:04;;;;;;;4.32;2.13;;;27.90;68.70;;;;;;4935948;29;20400;-84
2021/08/01 01:51:32;;;;;;;0.75;0.75;;;27.70;69.60;;;;;;4936013;29;20043;-85
2021/08/01 01:53:59;;;;;;;0.68;0.68;;;27.50;70.30;;;;;;4935908;29;20035;-84
2021/08/01 01:56:26;;;;;;;0.93;0.85;;;27.40;70.90;;;;;;4936158;29;20383;-80
2021/08/01 01:58:53;;;;;;;1.55;1.45;;;27.40;71.00;;;;;;4915230;29;20047;-82
2021/08/01 02:01:19;;;;;;;0.65;0.65;;;27.50;70.50;;;;;;4917104;29;20044;-81
2021/08/01 02:03:45;;;;;;;1.02;0.93;;;27.30;70.70;;;;;;4931502;29;20040;-84
2021/08/01 02:06:16;;;;;;;1.85;1.67;;;27.10;71.20;;;;;;4916886;29;20079;-83
2021/08/01 02:08:57;;;;;;;0.60;0.60;;;27.00;71.30;;;;;;4926935;29;20032;-84
2021/08/01 02:11:29;;;;;;;0.70;0.70;;;26.90;71.90;;;;;;4934708;29;20038;-85
2021/08/01 02:14:20;;;;;;;0.80;0.80;;;27.00;71.90;;;;;;4934326;29;20058;-81
2021/08/01 02:16:49;;;;;;;1.05;0.95;;;26.80;71.90;;;;;;4935267;29;20059;-81
2021/08/01 02:19:17;;;;;;;0.80;0.80;;;26.80;72.10;;;;;;4935555;29;20050;-80
2021/08/01 02:21:44;;;;;;;0.60;0.60;;;26.80;72.10;;;;;;4935844;29;20070;-81
2021/08/01 02:24:11;;;;;;;0.70;0.70;;;26.80;72.10;;;;;;4935295;29;20508;-84
2021/08/01 02:26:39;;;;;;;0.63;0.63;;;26.70;72.20;;;;;;4934181;29;20511;-84
2021/08/01 02:29:06;;;;;;;0.82;0.82;;;26.60;72.40;;;;;;4935063;29;20035;-85
2021/08/01 02:31:33;;;;;;;1.35;1.17;;;26.70;72.20;;;;;;4933604;29;20039;-84
2021/08/01 02:33:59;;;;;;;1.45;1.35;;;26.70;72.00;;;;;;4933727;29;20396;-84
2021/08/01 02:36:26;;;;;;;0.70;0.70;;;26.80;71.70;;;;;;4933925;29;20044;-82
2021/08/01 02:38:58;;;;;;;0.82;0.82;;;26.70;71.40;;;;;;4935094;29;20040;-84
2021/08/01 02:41:35;;;;;;;1.35;1.20;;;26.80;71.30;;;;;;4935093;29;20070;-81
2021/08/01 02:44:09;;;;;;;1.77;1.05;;;26.70;71.20;;;;;;4935171;29;20032;-83
2021/08/01 02:46:38;;;;;;;1.52;1.42;;;26.70;71.00;;;;;;4935174;29;20031;-82
2021/08/01 02:49:06;;;;;;;0.70;0.70;;;26.70;71.10;;;;;;4934847;29;20405;-84
2021/08/01 02:51:32;;;;;;;1.80;1.52;;;26.70;71.30;;;;;;4933755;29;20047;-84
2021/08/01 02:54:00;;;;;;;0.70;0.70;;;26.70;71.50;;;;;;4917688;29;20079;-83
2021/08/01 02:56:30;;;;;;;4.07;3.55;;;26.70;71.10;;;;;;4935024;29;20072;-84
2021/08/01 02:58:59;;;;;;;0.73;0.73;;;26.70;71.10;;;;;;4933090;29;20467;-82
2021/08/01 03:01:27;;;;;;;0.70;0.70;;;26.40;72.80;;;;;;4933634;29;20040;-82
2021/08/01 03:03:54;;;;;;;1.52;1.42;;;26.50;73.10;;;;;;4934982;29;20038;-84
2021/08/01 03:06:20;;;;;;;2.15;1.05;;;26.50;73.30;;;;;;4934642;29;20376;-81
2021/08/01 03:08:47;;;;;;;1.08;1.00;;;26.40;73.80;;;;;;4933210;29;20123;-84
2021/08/01 03:11:20;;;;;;;0.85;0.85;;;26.40;73.60;;;;;;4934465;29;20095;-83
2021/08/01 03:13:46;;;;;;;0.80;0.80;;;26.50;74.10;;;;;;4917270;29;20031;-83
2021/08/01 03:16:11;;;;;;;22.10;1.60;;;26.50;74.10;;;;;;4917679;29;20052;-84
2021/08/01 03:18:37;;;;;;;0.80;0.80;;;26.10;74.20;;;;;;4934649;29;20024;-80
2021/08/01 03:21:03;;;;;;;1.10;1.00;;;26.40;74.00;;;;;;4934433;29;20488;-83
2021/08/01 03:23:28;;;;;;;1.67;1.58;;;26.40;73.60;;;;;;4934496;29;20044;-84
2021/08/01 03:25:54;;;;;;;0.70;0.70;;;26.10;74.80;;;;;;4917853;29;20135;-84
2021/08/01 03:28:20;;;;;;;1.38;1.25;;;26.30;75.10;;;;;;4934141;29;20425;-85
2021/08/01 03:30:46;;;;;;;2.40;1.45;;;26.10;74.40;;;;;;4934521;29;20048;-83
2021/08/01 03:33:11;;;;;;;0.50;0.50;;;26.00;75.10;;;;;;4934480;29;20090;-82
2021/08/01 03:35:37;;;;;;;1.13;1.02;;;26.20;75.30;;;;;;4934660;29;20039;-83
2021/08/01 03:38:03;;;;;;;1.13;1.02;;;26.30;75.00;;;;;;4934615;29;20468;-83
2021/08/01 03:40:28;;;;;;;0.60;0.60;;;26.10;75.70;;;;;;4934057;29;20512;-81
2021/08/01 03:42:54;;;;;;;0.77;0.77;;;26.20;76.00;;;;;;4934434;29;20032;-80
2021/08/01 03:45:20;;;;;;;0.60;0.60;;;26.20;75.70;;;;;;4934231;29;20480;-84
2021/08/01 03:47:46;;;;;;;0.75;0.75;;;26.00;75.50;;;;;;4934556;29;20123;-80
2021/08/01 03:50:11;;;;;;;4.53;1.23;;;26.10;75.20;;;;;;4934273;29;20379;-81
2021/08/01 03:52:37;;;;;;;0.57;0.57;;;26.30;74.80;;;;;;4933972;29;20062;-81
2021/08/01 03:55:04;;;;;;;0.60;0.60;;;26.30;75.00;;;;;;4917021;29;20056;-82
2021/08/01 03:57:29;;;;;;;0.85;0.85;;;26.30;74.90;;;;;;4941246;29;20046;-83
2021/08/01 03:59:55;;;;;;;1.17;1.08;;;26.30;75.20;;;;;;4952913;29;20036;-83
2021/08/01 04:02:21;;;;;;;0.80;0.80;;;26.30;74.90;;;;;;4953353;29;20391;-85
2021/08/01 04:04:46;;;;;;;0.75;0.75;;;26.40;74.90;;;;;;4953315;29;20182;-85
2021/08/01 04:07:12;;;;;;;3.08;2.25;;;26.40;75.30;;;;;;4935963;29;20227;-81
2021/08/01 04:09:38;;;;;;;0.75;0.75;;;26.40;75.60;;;;;;4952820;29;20036;-81
2021/08/01 04:12:04;;;;;;;0.90;0.90;;;26.40;75.60;;;;;;4953376;29;20035;-82
2021/08/01 04:14:31;;;;;;;2.15;1.33;;;26.30;75.70;;;;;;4936049;29;20054;-80
2021/08/01 04:16:58;;;;;;;28.05;2.88;;;26.20;75.80;;;;;;4953189;29;20059;-79
2021/08/01 04:19:24;;;;;;;1.05;1.05;;;26.30;75.90;;;;;;4953074;29;20036;-83
2021/08/01 04:21:50;;;;;;;1.10;1.00;;;26.40;75.70;;;;;;4953061;29;20035;-85
2021/08/01 04:24:16;;;;;;;1.02;1.02;;;26.20;75.40;;;;;;4953157;29;20032;-85
2021/08/01 04:26:42;;;;;;;3.83;1.40;;;26.20;75.80;;;;;;4953311;29;20360;-82
2021/08/01 04:29:08;;;;;;;0.80;0.80;;;26.40;75.70;;;;;;4952795;29;20027;-84
2021/08/01 04:31:34;;;;;;;0.90;0.90;;;26.40;75.30;;;;;;4953037;29;20035;-81
2021/08/01 04:34:00;;;;;;;0.55;0.55;;;26.50;75.10;;;;;;4952932;29;20035;-85
2021/08/01 04:36:25;;;;;;;0.60;0.60;;;26.50;74.80;;;;;;4953091;29;20507;-85
2021/08/01 04:38:51;;;;;;;0.60;0.60;;;26.40;75.60;;;;;;4952539;29;20369;-85
2021/08/01 04:41:17;;;;;;;1.05;0.98;;;26.40;76.00;;;;;;4953018;29;20031;-84
2021/08/01 04:43:43;;;;;;;0.65;0.65;;;26.30;76.10;;;;;;4935723;29;20391;-85
2021/08/01 04:46:08;;;;;;;1.85;1.60;;;26.40;75.80;;;;;;4953219;29;20294;-85
2021/08/01 04:48:34;;;;;;;2.05;1.40;;;26.40;75.10;;;;;;4935342;29;20051;-85
2021/08/01 04:51:00;;;;;;;0.60;0.60;;;26.40;75.20;;;;;;4952775;29;20082;-84
2021/08/01 04:53:25;;;;;;;0.85;0.85;;;26.50;75.30;;;;;;4935511;29;20394;-80
2021/08/01 04:55:51;;;;;;;0.93;0.93;;;26.40;74.80;;;;;;4953097;28;20408;-85
2021/08/01 04:58:17;;;;;;;0.57;0.57;;;26.40;75.60;;;;;;4955926;29;20055;-80
2021/08/01 05:00:43;;;;;;;1.10;1.00;;;26.50;75.50;;;;;;4956202;29;20445;-83
2021/08/01 05:03:08;;;;;;;0.80;0.70;;;26.60;74.70;;;;;;4956054;29;20035;-82
2021/08/01 05:05:36;;;;;;;0.90;0.90;;;26.60;74.80;;;;;;4956319;29;20345;-82
2021/08/01 05:08:02;;;;;;;0.70;0.70;;;26.50;75.30;;;;;;4956437;29;20129;-83
2021/08/01 05:10:28;;;;;;;15.43;2.88;;;26.50;75.20;;;;;;4956000;29;20036;-83
2021/08/01 05:12:54;;;;;;;1.13;1.02;;;26.60;74.80;;;;;;4939002;29;20054;-82
2021/08/01 05:15:20;;;;;;;0.60;0.60;;;26.60;74.70;;;;;;4956139;29;20399;-79
2021/08/01 05:17:45;;;;;;;1.02;0.95;;;26.80;74.80;;;;;;4955783;29;20039;-80
2021/08/01 05:20:11;;;;;;;0.60;0.60;;;26.90;74.60;;;;;;4955773;29;20487;-82
2021/08/01 05:22:37;;;;;;;1.30;1.20;;;26.70;74.90;;;;;;4956363;29;20070;-83
2021/08/01 05:25:03;;;;;;;1.45;1.27;;;26.70;74.90;;;;;;4955653;29;20063;-82
2021/08/01 05:27:29;;;;;;;1.40;1.30;;;26.80;74.90;;;;;;4955547;29;20118;-84
2021/08/01 05:29:55;;;;;;;0.77;0.77;;;26.80;74.70;;;;;;4955766;29;20099;-80
2021/08/01 05:32:20;;;;;;;1.27;1.17;;;26.90;74.30;;;;;;4955871;29;20041;-84
2021/08/01 05:34:46;;;;;;;1.15;1.05;;;27.00;74.60;;;;;;4955478;29;20301;-83
2021/08/01 05:37:12;;;;;;;0.85;0.80;;;27.10;74.60;;;;;;4955643;29;20031;-84
2021/08/01 05:39:37;;;;;;;3.13;1.38;;;27.20;74.30;;;;;;4938493;29;20039;-83
2021/08/01 05:42:04;;;;;;;0.60;0.60;;;27.30;74.40;;;;;;4955312;29;20513;-85
2021/08/01 05:44:31;;;;;;;0.70;0.70;;;27.30;74.50;;;;;;4955541;29;20039;-81
2021/08/01 05:46:57;;;;;;;0.60;0.60;;;27.30;75.00;;;;;;4937806;29;20502;-84
2021/08/01 05:49:22;;;;;;;1.55;1.45;;;27.40;75.40;;;;;;4937874;29;20039;-82
2021/08/01 05:51:48;;;;;;;1.10;1.00;;;27.30;75.30;;;;;;4955449;29;20637;-84
2021/08/01 05:54:14;;;;;;;1.58;1.48;;;27.30;75.10;;;;;;4955084;28;20050;-85
2021/08/01 05:56:40;;;;;;;0.75;0.75;;;27.30;75.30;;;;;;4955243;29;20035;-80
2021/08/01 05:59:05;;;;;;;0.98;0.93;;;27.30;75.30;;;;;;4954684;29;20050;-85
2021/08/01 06:01:31;;;;;;;12.25;1.10;;;27.50;75.30;;;;;;4954978;29;20383;-85
2021/08/01 06:03:57;;;;;;;1.02;1.02;;;27.40;75.20;;;;;;4937587;29;20387;-84
2021/08/01 06:06:23;;;;;;;0.40;0.40;;;27.50;75.10;;;;;;4953810;28;20038;-81
2021/08/01 06:08:52;;;;;;;0.70;0.70;;;27.70;75.20;;;;;;4954450;29;20035;-83
2021/08/01 06:11:19;;;;;;;0.63;0.63;;;27.80;75.00;;;;;;4954862;29;20059;-84
2021/08/01 06:13:45;;;;;;;0.73;0.70;;;27.80;75.50;;;;;;4936843;29;20110;-81
2021/08/01 06:16:12;;;;;;;5.35;2.03;;;27.70;75.10;;;;;;4955188;29;20369;-81
2021/08/01 06:18:39;;;;;;;1.48;1.00;;;27.80;75.00;;;;;;4954775;29;20037;-83
2021/08/01 06:21:13;;;;;;;1.35;1.25;;;27.80;75.50;;;;;;4954470;29;20495;-81
2021/08/01 06:23:42;;;;;;;7.57;1.55;;;27.70;75.00;;;;;;4954712;29;20059;-84
2021/08/01 06:26:08;;;;;;;2.08;1.75;;;27.70;75.20;;;;;;4954472;29;20163;-82
2021/08/01 06:28:34;;;;;;;1.10;0.90;;;27.90;74.90;;;;;;4954482;29;20110;-84
2021/08/01 06:31:01;;;;;;;0.80;0.80;;;28.10;74.70;;;;;;4954895;29;20118;-84
2021/08/01 06:33:28;;;;;;;1.58;1.48;;;28.10;74.90;;;;;;4954914;29;20055;-82
2021/08/01 06:35:54;;;;;;;2.47;2.05;;;28.10;75.50;;;;;;4954478;29;20046;-82
2021/08/01 06:38:20;;;;;;;1.70;1.33;;;28.10;75.10;;;;;;4954513;29;20039;-85
2021/08/01 06:40:45;;;;;;;0.88;0.88;;;28.00;75.10;;;;;;4937287;29;20035;-83
2021/08/01 06:43:11;;;;;;;0.80;0.80;;;27.80;75.60;;;;;;4954387;29;20038;-80
2021/08/01 06:45:37;;;;;;;0.52;0.52;;;27.90;75.60;;;;;;4954297;29;20055;-85
2021/08/01 06:48:04;;;;;;;0.85;0.85;;;28.00;75.10;;;;;;4954358;29;20034;-80
2021/08/01 06:50:30;;;;;;;2.42;1.85;;;28.00;74.50;;;;;;4954003;29;20056;-80
2021/08/01 06:52:56;;;;;;;1.17;1.08;;;28.10;74.20;;;;;;4954839;28;20070;-88
2021/08/01 06:55:21;;;;;;;2.28;1.60;;;28.00;74.10;;;;;;4953926;29;20090;-86
2021/08/01 06:57:47;;;;;;;0.85;0.85;;;28.20;74.80;;;;;;4954488;29;20059;-89
2021/08/01 07:00:14;;;;;;;0.65;0.65;;;28.30;74.70;;;;;;4938318;29;20038;-89
2021/08/01 07:02:39;;;;;;;0.60;0.60;;;28.40;74.60;;;;;;4937861;29;20035;-88
2021/08/01 07:05:37;;;;;;;0.93;0.90;;;28.50;75.40;;;;;;4937692;29;20130;-89
2021/08/01 07:08:09;;;;;;;0.40;0.40;;;28.70;75.60;;;;;;4955200;29;20031;-88
2021/08/01 07:10:34;;;;;;;1.83;1.27;;;28.80;74.80;;;;;;4954443;29;20036;-90
2021/08/01 07:13:26;;;;;;;1.10;0.95;;;28.80;75.30;;;;;;4955142;29;20431;-86
2021/08/01 07:16:22;;;;;;;4.13;1.98;;;28.80;73.90;;;;;;4955822;29;20081;-87
2021/08/01 07:18:48;;;;;;;0.45;0.45;;;28.90;74.60;;;;;;4955064;28;20039;-88
2021/08/01 07:21:20;;;;;;;0.60;0.60;;;28.90;75.60;;;;;;4954740;29;20074;-86
2021/08/01 07:24:12;;;;;;;0.75;0.70;;;29.00;77.20;;;;;;4955079;29;20039;-87
2021/08/01 07:26:37;;;;;;;0.65;0.65;;;29.00;74.70;;;;;;4909190;29;20137;-84
2021/08/01 07:29:03;;;;;;;1.92;1.33;;;29.10;76.70;;;;;;4936591;29;20483;-80
2021/08/01 07:31:29;;;;;;;0.50;0.50;;;29.10;74.80;;;;;;4953683;29;20046;-81
2021/08/01 07:33:55;;;;;;;0.85;0.82;;;29.10;73.90;;;;;;4953232;29;20040;-80
2021/08/01 07:36:22;;;;;;;1.10;1.00;;;29.00;72.20;;;;;;4953423;29;20510;-80
2021/08/01 07:38:47;;;;;;;1.45;1.10;;;28.90;72.60;;;;;;4952299;29;20039;-79
2021/08/01 07:41:13;;;;;;;2.60;1.05;;;28.70;73.00;;;;;;4953592;29;20369;-79
2021/08/01 07:43:39;;;;;;;0.80;0.80;;;28.80;73.30;;;;;;4953336;29;20074;-80
2021/08/01 07:46:04;;;;;;;1.13;1.02;;;28.90;72.80;;;;;;4934949;29;20514;-79
2021/08/01 07:48:30;;;;;;;3.58;2.03;;;29.10;72.70;;;;;;4952324;29;20387;-80
2021/08/01 07:50:56;;;;;;;2.38;2.17;;;29.10;72.30;;;;;;4953872;29;20439;-80
2021/08/01 07:53:23;;;;;;;1.00;0.93;;;29.20;71.90;;;;;;4953214;28;20493;-78
2021/08/01 07:55:49;;;;;;;0.52;0.52;;;29.40;72.40;;;;;;4953200;29;20046;-81
2021/08/01 07:58:15;;;;;;;1.35;1.10;;;29.50;72.20;;;;;;4953107;29;20043;-78
2021/08/01 08:00:41;;;;;;;2.95;1.73;;;29.60;71.50;;;;;;4936350;29;20039;-80
2021/08/01 08:03:06;;;;;;;1.10;0.93;;;29.70;70.70;;;;;;4953133;29;20180;-80
2021/08/01 08:05:32;;;;;;;0.50;0.50;;;29.70;70.60;;;;;;4935995;29;20364;-80
2021/08/01 08:07:58;;;;;;;0.40;0.40;;;29.80;70.60;;;;;;4953364;29;20479;-80
2021/08/01 08:10:23;;;;;;;1.23;1.05;;;29.90;69.90;;;;;;4952868;29;20043;-79
2021/08/01 08:12:49;;;;;;;0.43;0.43;;;30.00;69.70;;;;;;4953758;29;20375;-80
2021/08/01 08:15:16;;;;;;;1.58;0.98;;;30.00;68.80;;;;;;4935563;29;20515;-79
2021/08/01 08:17:42;;;;;;;0.88;0.88;;;30.10;69.50;;;;;;4953189;29;20027;-81
2021/08/01 08:20:09;;;;;;;0.93;0.90;;;30.10;69.00;;;;;;4952897;29;20046;-80
2021/08/01 08:22:35;;;;;;;0.82;0.82;;;30.10;68.80;;;;;;4953336;29;20111;-83
2021/08/01 08:25:01;;;;;;;2.15;1.70;;;30.10;68.90;;;;;;4953052;29;20629;-81
2021/08/01 08:27:27;;;;;;;0.38;0.38;;;30.20;68.00;;;;;;4953524;29;20432;-80
2021/08/01 08:29:53;;;;;;;1.90;1.20;;;30.30;68.20;;;;;;4953643;28;20047;-81
2021/08/01 08:32:18;;;;;;;1.63;1.20;;;30.40;67.50;;;;;;4957398;29;20369;-80
2021/08/01 08:34:44;;;;;;;0.65;0.65;;;30.50;67.40;;;;;;4956108;29;20039;-82
2021/08/01 08:37:10;;;;;;;0.40;0.40;;;30.50;67.00;;;;;;4956741;29;20055;-81
2021/08/01 08:39:36;;;;;;;1.17;1.08;;;30.60;67.30;;;;;;4956416;29;20119;-81
2021/08/01 08:42:02;;;;;;;1.08;0.70;;;30.60;67.20;;;;;;4956705;29;20038;-81
2021/08/01 08:44:28;;;;;;;0.73;0.73;;;30.70;67.10;;;;;;4956212;29;20043;-80
2021/08/01 08:46:57;;;;;;;0.63;0.60;;;30.70;66.50;;;;;;4956622;29;20046;-79
2021/08/01 08:49:23;;;;;;;1.15;1.08;;;30.70;66.10;;;;;;4956113;29;20035;-81
2021/08/01 08:51:53;;;;;;;1.55;0.73;;;30.80;67.00;;;;;;4956306;29;20381;-79
2021/08/01 08:54:33;;;;;;;0.88;0.70;;;31.00;67.00;;;;;;4956349;28;20041;-80
2021/08/01 08:57:01;;;;;;;;;;;31.10;64.70;;;;;;4956658;29;20031;-80
2021/08/01 08:59:28;;;;;;;2.45;0.95;;;31.10;65.10;;;;;;4956172;29;19910;-80
2021/08/01 09:01:54;;;;;;;0.50;0.50;;;31.30;64.60;;;;;;4956423;29;20047;-79
2021/08/01 09:04:23;;;;;;;1.98;1.10;;;31.40;64.30;;;;;;4955867;29;20059;-79
2021/08/01 09:06:49;;;;;;;0.80;0.80;;;31.40;65.10;;;;;;4956331;29;20043;-79
2021/08/01 09:09:15;;;;;;;1.65;1.52;;;31.60;65.50;;;;;;4939022;29;20398;-78
2021/08/01 09:11:41;;;;;;;0.60;0.60;;;31.50;65.60;;;;;;4956150;29;20036;-77
2021/08/01 09:14:20;;;;;;;3.53;2.00;;;31.80;65.00;;;;;;4955999;29;20467;-79
2021/08/01 09:16:48;;;;;;;1.60;1.05;;;32.00;64.10;;;;;;4956497;29;20066;-79
2021/08/01 09:19:24;;;;;;;0.40;0.40;;;32.40;63.80;;;;;;4955726;29;20039;-80
2021/08/01 09:21:50;;;;;;;1.17;1.08;;;32.70;63.90;;;;;;4955914;29;20031;-78
2021/08/01 09:24:16;;;;;;;1.33;0.95;;;32.80;62.80;;;;;;4955478;29;20035;-79
2021/08/01 09:26:43;;;;;;;0.73;0.73;;;33.00;63.10;;;;;;4955896;29;20067;-80
2021/08/01 09:29:09;;;;;;;1.40;1.30;;;33.30;61.60;;;;;;4955784;29;20027;-82
2021/08/01 09:31:35;;;;;;;0.65;0.50;;;33.00;61.20;;;;;;4955474;29;20031;-80
2021/08/01 09:34:18;;;;;;;1.77;1.27;;;33.10;61.20;;;;;;4955774;29;20090;-81
2021/08/01 09:36:55;;;;;;;0.50;0.50;;;33.30;61.60;;;;;;4955778;29;20046;-80
2021/08/01 09:39:21;;;;;;;0.50;0.50;;;33.60;62.00;;;;;;4955841;29;20114;-79
2021/08/01 09:41:59;;;;;;;1.05;0.95;;;33.80;60.80;;;;;;4955327;28;20027;-79
2021/08/01 09:44:25;;;;;;;0.77;0.77;;;33.80;59.80;;;;;;4955648;29;20042;-80
2021/08/01 09:46:55;;;;;;;18.08;1.60;;;33.90;59.70;;;;;;4955442;29;20027;-81
2021/08/01 09:49:22;;;;;;;1.08;0.75;;;34.30;60.00;;;;;;4955280;29;20027;-81
2021/08/01 09:51:53;;;;;;;0.80;0.50;;;34.40;58.20;;;;;;4955149;29;20071;-79
2021/08/01 09:54:20;;;;;;;0.52;0.45;;;34.60;57.90;;;;;;4955310;28;20039;-80
2021/08/01 09:56:57;;;;;;;1.33;1.02;;;34.70;58.00;;;;;;4955030;29;20514;-80
2021/08/01 09:59:27;;;;;;;1.40;0.80;;;34.60;57.30;;;;;;4955252;29;20058;-81
2021/08/01 10:01:55;;;;;;;0.82;0.75;;;34.90;56.90;;;;;;4955035;29;20062;-82
2021/08/01 10:04:40;;;;;;;0.60;0.60;;;35.10;57.20;;;;;;4954890;29;20086;-81
2021/08/01 10:07:16;;;;;;;0.70;0.70;;;35.20;57.00;;;;;;4955020;29;20039;-80
2021/08/01 10:09:48;;;;;;;0.52;0.50;;;35.30;56.40;;;;;;4955294;29;20372;-80
2021/08/01 10:12:14;;;;;;;1.20;0.68;;;35.10;56.20;;;;;;4955260;29;20035;-80
2021/08/01 10:14:42;;;;;;;0.63;0.60;;;35.00;56.10;;;;;;4954874;29;20055;-80
2021/08/01 10:17:08;;;;;;;0.75;0.73;;;35.20;56.40;;;;;;4955013;29;20049;-80
2021/08/01 10:19:35;;;;;;;0.40;0.40;;;35.10;55.20;;;;;;4954490;29;20466;-80
2021/08/01 10:22:06;;;;;;;3.60;1.77;;;35.30;55.60;;;;;;4954668;29;20027;-81
2021/08/01 10:24:40;;;;;;;1.00;0.90;;;35.10;54.10;;;;;;4954754;29;20035;-80
2021/08/01 10:27:08;;;;;;;4.80;1.23;;;35.10;53.80;;;;;;4954835;29;20027;-81
2021/08/01 10:29:53;;;;;;;0.65;0.65;;;35.20;53.40;;;;;;4954021;29;20054;-81
2021/08/01 10:32:30;;;;;;;0.50;0.50;;;35.50;54.80;;;;;;4954801;29;20026;-80
2021/08/01 10:35:06;;;;;;;0.47;0.45;;;36.00;54.40;;;;;;4954357;29;20061;-81
2021/08/01 10:37:44;;;;;;;0.35;0.35;;;36.30;53.60;;;;;;4954694;29;20027;-80
2021/08/01 10:40:17;;;;;;;0.57;0.47;;;36.40;52.90;;;;;;4954451;29;20039;-81
2021/08/01 10:42:47;;;;;;;0.50;0.50;;;36.50;53.00;;;;;;4954512;29;20030;-80
2021/08/01 10:45:17;;;;;;;8.30;1.80;;;36.60;53.70;;;;;;4954213;29;20039;-80
2021/08/01 10:47:44;;;;;;;0.68;0.65;;;36.60;53.70;;;;;;4954593;29;20031;-81
2021/08/01 10:50:16;;;;;;;2.00;1.63;;;36.80;53.80;;;;;;4954260;29;20031;-81
2021/08/01 10:52:42;;;;;;;0.50;0.43;;;36.60;53.50;;;;;;4953278;28;20035;-81
2021/08/01 10:55:20;;;;;;;1.88;0.85;;;36.90;52.70;;;;;;4954332;29;20043;-81
2021/08/01 10:58:11;;;;;;;2.58;1.30;;;37.10;51.80;;;;;;4954100;29;20130;-81
2021/08/01 11:01:12;;;;;;;2.63;1.67;;;37.20;51.80;;;;;;4954238;29;20031;-80
2021/08/01 11:03:39;;;;;;;0.70;0.70;;;37.40;51.80;;;;;;4857572;29;20123;-81
2021/08/01 11:06:26;;;;;;;1.60;1.02;;;37.30;51.80;;;;;;4935416;29;20028;-80
2021/08/01 11:09:12;;;;;;;0.28;0.28;;;37.70;51.90;;;;;;4953607;29;20398;-81
2021/08/01 11:11:38;;;;;;;1.00;0.75;;;37.50;52.10;;;;;;4934803;29;20424;-80
2021/08/01 11:14:04;;;;;;;2.22;0.40;;;37.40;52.60;;;;;;4934849;29;20044;-81
2021/08/01 11:16:30;;;;;;;0.65;0.50;;;37.60;52.20;;;;;;4935104;29;20028;-80
2021/08/01 11:18:55;;;;;;;0.50;0.47;;;37.80;52.20;;;;;;4934648;29;20035;-81
2021/08/01 11:21:38;;;;;;;8.65;1.30;;;37.90;51.20;;;;;;4934550;29;20163;-79
2021/08/01 11:24:06;;;;;;;1.05;0.93;;;37.70;51.50;;;;;;4917131;29;20040;-80
2021/08/01 11:26:33;;;;;;;1.65;1.17;;;38.00;51.50;;;;;;4917943;29;20050;-81
2021/08/01 11:29:09;;;;;;;1.17;0.63;;;38.20;51.50;;;;;;4934261;29;20396;-80
2021/08/01 11:31:37;;;;;;;1.65;0.68;;;38.00;51.10;;;;;;4934194;29;20075;-79
2021/08/01 11:34:17;;;;;;;0.40;0.40;;;37.90;49.60;;;;;;4934507;29;20428;-80
2021/08/01 11:36:43;;;;;;;1.55;1.05;;;38.00;49.90;;;;;;4917492;29;20036;-80
2021/08/01 11:39:09;;;;;;;4.90;2.05;;;38.00;50.10;;;;;;4934489;29;20047;-82
2021/08/01 11:41:40;;;;;;;0.55;0.55;;;38.30;50.20;;;;;;4917460;29;20032;-81
2021/08/01 11:44:23;;;;;;;0.60;0.35;;;38.50;48.60;;;;;;4934309;29;20032;-81
2021/08/01 11:47:08;;;;;;;0.63;0.52;;;38.70;47.20;;;;;;4917461;29;20039;-80
2021/08/01 11:49:42;;;;;;;0.93;0.75;;;38.50;47.60;;;;;;4917442;29;20390;-79
2021/08/01 11:52:09;;;;;;;0.85;0.52;;;38.40;48.70;;;;;;4934465;29;20032;-80
2021/08/01 11:54:37;;;;;;;1.70;1.00;;;38.50;49.10;;;;;;4934187;29;20043;-81
2021/08/01 11:57:15;;;;;;;0.35;0.30;;;38.70;49.70;;;;;;4934598;29;20059;-79
2021/08/01 11:59:43;;;;;;;4.67;1.50;;;39.00;48.70;;;;;;4917636;29;20291;-79
2021/08/01 12:02:10;;;;;;;6.18;1.50;;;39.20;48.40;;;;;;4933824;29;20079;-82
2021/08/01 12:04:37;;;;;;;0.45;0.25;;;39.30;48.20;;;;;;4935955;29;20040;-80
2021/08/01 12:07:03;;;;;;;1.90;0.77;;;39.60;47.90;;;;;;4938052;29;20046;-80
2021/08/01 12:09:31;;;;;;;1.80;0.68;;;39.50;47.30;;;;;;4940008;29;20047;-81
2021/08/01 12:12:02;;;;;;;0.93;0.60;;;39.50;47.10;;;;;;4939736;29;20041;-83
2021/08/01 12:14:36;;;;;;;0.43;0.43;;;39.30;46.70;;;;;;4957340;29;20078;-81
2021/08/01 12:17:12;;;;;;;0.55;0.55;;;39.40;47.10;;;;;;4957229;29;20102;-82
2021/08/01 12:19:43;;;;;;;1.88;1.38;;;39.80;47.60;;;;;;4957093;29;20439;-82
2021/08/01 12:22:20;;;;;;;0.85;0.52;;;40.10;46.50;;;;;;4956860;29;20507;-80
2021/08/01 12:24:46;;;;;;;6.07;1.67;;;39.80;46.40;;;;;;4957275;29;20114;-80
2021/08/01 12:27:32;;;;;;;0.40;0.40;;;39.90;46.10;;;;;;4940329;29;20365;-79
2021/08/01 12:30:05;;;;;;;0.55;0.52;;;40.10;46.30;;;;;;4956921;29;20042;-79
2021/08/01 12:32:32;;;;;;;0.75;0.75;;;40.10;46.00;;;;;;4957064;29;20035;-80
2021/08/01 12:35:19;;;;;;;0.32;0.30;;;40.30;45.40;;;;;;4956933;29;20085;-80
2021/08/01 12:37:47;;;;;;;0.75;0.55;;;40.20;44.90;;;;;;4956982;29;20031;-80
2021/08/01 12:40:24;;;;;;;0.90;0.82;;;40.40;45.40;;;;;;4956819;29;20067;-79
2021/08/01 12:42:53;;;;;;;0.30;0.30;;;40.50;45.70;;;;;;4939565;29;20046;-79
2021/08/01 12:45:19;;;;;;;0.22;0.22;;;40.60;45.60;;;;;;4956113;29;20031;-79
2021/08/01 12:47:45;;;;;;;1.05;0.63;;;40.20;45.50;;;;;;4956751;29;20114;-80
2021/08/01 12:50:12;;;;;;;1.70;1.13;;;40.20;44.70;;;;;;4956618;29;20416;-81
2021/08/01 12:52:38;;;;;;;1.45;1.23;;;40.50;45.40;;;;;;4956500;28;20051;-81
2021/08/01 12:55:09;;;;;;;0.40;0.40;;;40.60;44.80;;;;;;4956198;29;20261;-80
2021/08/01 12:57:35;;;;;;;1.00;0.85;;;40.70;44.90;;;;;;4956410;29;20085;-79